sensor_id;sensor_type;location;lat;lon;timestamp;pressure;altitude;pressure_sealevel;temperature
69420;BMP280;71621;52.030;113.516;2023-07-31T00:01:44;93099.66;;;25.65
69420;BMP280;71621;52.030;113.516;2023-07-31T00:04:47;93102.78;;;25.71
69420;BMP280;71621;52.030;113.516;2023-07-31T00:07:51;93097.69;;;25.78
69420;BMP280;71621;52.030;113.516;2023-07-31T00:10:57;93099.81;;;25.75
69420;BMP280;71621;52.030;113.516;2023-07-31T00:14:00;93100.25;;;25.67
69420;BMP280;71621;52.030;113.516;2023-07-31T00:17:04;93100.31;;;25.80
69420;BMP280;71621;52.030;113.516;2023-07-31T00:20:07;93103.47;;;25.99
69420;BMP280;71621;52.030;113.516;2023-07-31T00:23:11;93111.22;;;26.22
69420;BMP280;71621;52.030;113.516;2023-07-31T00:26:15;93113.56;;;26.30
69420;BMP280;71621;52.030;113.516;2023-07-31T00:29:19;93121.50;;;26.49
69420;BMP280;71621;52.030;113.516;2023-07-31T00:32:22;93120.25;;;26.60
69420;BMP280;71621;52.030;113.516;2023-07-31T00:35:27;93120.78;;;26.63
69420;BMP280;71621;52.030;113.516;2023-07-31T00:38:30;93119.78;;;26.69
69420;BMP280;71621;52.030;113.516;2023-07-31T00:41:34;93104.59;;;26.84
69420;BMP280;71621;52.030;113.516;2023-07-31T00:44:38;93102.63;;;26.95
69420;BMP280;71621;52.030;113.516;2023-07-31T00:47:41;93105.59;;;27.04
69420;BMP280;71621;52.030;113.516;2023-07-31T00:50:45;93097.88;;;27.19
69420;BMP280;71621;52.030;113.516;2023-07-31T00:53:49;93105.25;;;27.23
69420;BMP280;71621;52.030;113.516;2023-07-31T00:56:55;93107.31;;;27.35
69420;BMP280;71621;52.030;113.516;2023-07-31T01:00:00;93112.81;;;27.47
69420;BMP280;71621;52.030;113.516;2023-07-31T01:03:03;93106.06;;;27.70
69420;BMP280;71621;52.030;113.516;2023-07-31T01:06:27;93092.25;;;27.95
69420;BMP280;71621;52.030;113.516;2023-07-31T01:10:11;93097.88;;;28.16
69420;BMP280;71621;52.030;113.516;2023-07-31T01:13:21;93084.44;;;28.23
69420;BMP280;71621;52.030;113.516;2023-07-31T01:16:25;93084.38;;;28.12
69420;BMP280;71621;52.030;113.516;2023-07-31T01:19:30;93081.22;;;28.08
69420;BMP280;71621;52.030;113.516;2023-07-31T01:29:20;93057.25;;;28.63
69420;BMP280;71621;52.030;113.516;2023-07-31T01:32:28;93052.66;;;28.60
69420;BMP280;71621;52.030;113.516;2023-07-31T01:35:34;93071.25;;;28.59
69420;BMP280;71621;52.030;113.516;2023-07-31T01:38:38;93071.47;;;28.55
69420;BMP280;71621;52.030;113.516;2023-07-31T01:41:41;93075.13;;;28.52
69420;BMP280;71621;52.030;113.516;2023-07-31T01:44:45;93066.72;;;28.43
69420;BMP280;71621;52.030;113.516;2023-07-31T01:47:48;93068.44;;;28.49
69420;BMP280;71621;52.030;113.516;2023-07-31T01:50:52;93063.28;;;28.66
69420;BMP280;71621;52.030;113.516;2023-07-31T01:53:55;93062.91;;;28.72
69420;BMP280;71621;52.030;113.516;2023-07-31T01:56:59;93061.28;;;28.98
69420;BMP280;71621;52.030;113.516;2023-07-31T02:00:04;93056.44;;;29.09
69420;BMP280;71621;52.030;113.516;2023-07-31T02:03:12;93053.28;;;29.15
69420;BMP280;71621;52.030;113.516;2023-07-31T02:06:16;93057.25;;;29.29
69420;BMP280;71621;52.030;113.516;2023-07-31T02:09:20;93046.34;;;29.27
69420;BMP280;71621;52.030;113.516;2023-07-31T02:12:23;93050.81;;;29.54
69420;BMP280;71621;52.030;113.516;2023-07-31T02:15:27;93046.22;;;29.71
69420;BMP280;71621;52.030;113.516;2023-07-31T02:18:30;93043.72;;;29.67
69420;BMP280;71621;52.030;113.516;2023-07-31T02:21:34;93046.22;;;29.71
69420;BMP280;71621;52.030;113.516;2023-07-31T02:24:37;93047.09;;;29.78
69420;BMP280;71621;52.030;113.516;2023-07-31T02:27:41;93048.19;;;29.73
69420;BMP280;71621;52.030;113.516;2023-07-31T02:30:45;93047.41;;;29.74
69420;BMP280;71621;52.030;113.516;2023-07-31T02:33:52;93046.06;;;29.73
69420;BMP280;71621;52.030;113.516;2023-07-31T02:36:56;93047.13;;;29.68
69420;BMP280;71621;52.030;113.516;2023-07-31T02:39:59;93038.22;;;29.57
69420;BMP280;71621;52.030;113.516;2023-07-31T02:43:03;93053.56;;;29.75
69420;BMP280;71621;52.030;113.516;2023-07-31T02:46:07;93044.09;;;29.82
69420;BMP280;71621;52.030;113.516;2023-07-31T02:49:10;93055.38;;;29.78
69420;BMP280;71621;52.030;113.516;2023-07-31T02:52:14;93055.16;;;29.72
69420;BMP280;71621;52.030;113.516;2023-07-31T02:55:17;93050.16;;;29.53
69420;BMP280;71621;52.030;113.516;2023-07-31T02:58:21;93058.81;;;29.36
69420;BMP280;71621;52.030;113.516;2023-07-31T03:01:24;93046.63;;;29.33
69420;BMP280;71621;52.030;113.516;2023-07-31T03:04:28;93047.78;;;29.47
69420;BMP280;71621;52.030;113.516;2023-07-31T03:07:31;93041.25;;;29.53
69420;BMP280;71621;52.030;113.516;2023-07-31T03:10:35;93047.94;;;29.66
69420;BMP280;71621;52.030;113.516;2023-07-31T03:13:39;93034.44;;;29.62
69420;BMP280;71621;52.030;113.516;2023-07-31T03:16:43;93042.53;;;29.64
69420;BMP280;71621;52.030;113.516;2023-07-31T03:19:46;93037.97;;;29.50
69420;BMP280;71621;52.030;113.516;2023-07-31T03:22:50;93045.28;;;29.64
69420;BMP280;71621;52.030;113.516;2023-07-31T03:26:01;93046.06;;;29.73
69420;BMP280;71621;52.030;113.516;2023-07-31T03:29:08;93043.84;;;29.76
69420;BMP280;71621;52.030;113.516;2023-07-31T03:32:12;93047.09;;;29.89
69420;BMP280;71621;52.030;113.516;2023-07-31T03:35:16;93038.13;;;29.99
69420;BMP280;71621;52.030;113.516;2023-07-31T03:38:19;93035.66;;;30.06
69420;BMP280;71621;52.030;113.516;2023-07-31T03:41:23;93041.44;;;30.02
69420;BMP280;71621;52.030;113.516;2023-07-31T03:44:26;93028.06;;;29.96
69420;BMP280;71621;52.030;113.516;2023-07-31T03:47:30;93030.81;;;29.96
69420;BMP280;71621;52.030;113.516;2023-07-31T03:50:33;93037.47;;;29.99
69420;BMP280;71621;52.030;113.516;2023-07-31T03:53:37;93026.03;;;30.15
69420;BMP280;71621;52.030;113.516;2023-07-31T03:56:40;93015.91;;;30.22
69420;BMP280;71621;52.030;113.516;2023-07-31T03:59:44;93020.47;;;30.26
69420;BMP280;71621;52.030;113.516;2023-07-31T04:02:47;93020.06;;;30.32
69420;BMP280;71621;52.030;113.516;2023-07-31T04:05:53;93029.88;;;30.40
69420;BMP280;71621;52.030;113.516;2023-07-31T04:08:57;93014.50;;;30.43
69420;BMP280;71621;52.030;113.516;2023-07-31T04:12:00;93015.88;;;30.52
69420;BMP280;71621;52.030;113.516;2023-07-31T04:15:04;93016.00;;;30.50
69420;BMP280;71621;52.030;113.516;2023-07-31T04:18:08;93016.31;;;30.46
69420;BMP280;71621;52.030;113.516;2023-07-31T04:21:11;93016.66;;;30.51
69420;BMP280;71621;52.030;113.516;2023-07-31T04:24:15;93019.59;;;30.49
69420;BMP280;71621;52.030;113.516;2023-07-31T04:27:18;93018.38;;;30.56
69420;BMP280;71621;52.030;113.516;2023-07-31T04:30:22;93011.91;;;30.60
69420;BMP280;71621;52.030;113.516;2023-07-31T04:33:26;93017.56;;;30.58
69420;BMP280;71621;52.030;113.516;2023-07-31T04:36:29;93021.28;;;30.54
69420;BMP280;71621;52.030;113.516;2023-07-31T04:39:33;93033.97;;;30.60
69420;BMP280;71621;52.030;113.516;2023-07-31T04:42:36;93030.50;;;30.70
69420;BMP280;71621;52.030;113.516;2023-07-31T04:45:44;93026.81;;;30.93
69420;BMP280;71621;52.030;113.516;2023-07-31T04:48:48;93040.19;;;31.18
69420;BMP280;71621;52.030;113.516;2023-07-31T04:51:52;93025.91;;;31.24
69420;BMP280;71621;52.030;113.516;2023-07-31T04:54:55;93026.00;;;31.13
69420;BMP280;71621;52.030;113.516;2023-07-31T04:57:59;93020.34;;;31.15
69420;BMP280;71621;52.030;113.516;2023-07-31T05:01:02;93015.25;;;31.28
69420;BMP280;71621;52.030;113.516;2023-07-31T05:04:06;93015.88;;;31.48
69420;BMP280;71621;52.030;113.516;2023-07-31T05:07:09;93005.38;;;31.59
69420;BMP280;71621;52.030;113.516;2023-07-31T05:10:13;93017.09;;;31.68
69420;BMP280;71621;52.030;113.516;2023-07-31T05:13:17;92998.84;;;31.63
69420;BMP280;71621;52.030;113.516;2023-07-31T05:16:20;92991.88;;;31.64
69420;BMP280;71621;52.030;113.516;2023-07-31T05:19:24;92992.47;;;31.56
69420;BMP280;71621;52.030;113.516;2023-07-31T05:22:27;92995.34;;;31.45
69420;BMP280;71621;52.030;113.516;2023-07-31T05:25:30;92992.25;;;31.41
69420;BMP280;71621;52.030;113.516;2023-07-31T05:28:35;92996.47;;;31.40
69420;BMP280;71621;52.030;113.516;2023-07-31T05:31:38;92990.28;;;31.39
69420;BMP280;71621;52.030;113.516;2023-07-31T05:34:42;92992.75;;;31.43
69420;BMP280;71621;52.030;113.516;2023-07-31T05:37:45;92991.78;;;31.47
69420;BMP280;71621;52.030;113.516;2023-07-31T05:40:49;92992.00;;;31.53
69420;BMP280;71621;52.030;113.516;2023-07-31T05:43:53;92991.81;;;31.55
69420;BMP280;71621;52.030;113.516;2023-07-31T05:46:56;93009.50;;;31.50
69420;BMP280;71621;52.030;113.516;2023-07-31T05:50:00;92997.03;;;31.51
69420;BMP280;71621;52.030;113.516;2023-07-31T05:53:03;93002.22;;;31.55
69420;BMP280;71621;52.030;113.516;2023-07-31T05:56:07;93007.13;;;31.54
69420;BMP280;71621;52.030;113.516;2023-07-31T05:59:12;93001.13;;;31.60
69420;BMP280;71621;52.030;113.516;2023-07-31T06:02:16;92986.03;;;31.59
69420;BMP280;71621;52.030;113.516;2023-07-31T06:05:19;92987.34;;;31.69
69420;BMP280;71621;52.030;113.516;2023-07-31T06:08:23;92975.56;;;31.79
69420;BMP280;71621;52.030;113.516;2023-07-31T06:11:27;92980.25;;;31.81
69420;BMP280;71621;52.030;113.516;2023-07-31T06:14:30;92981.09;;;31.79
69420;BMP280;71621;52.030;113.516;2023-07-31T06:17:34;92985.44;;;31.76
69420;BMP280;71621;52.030;113.516;2023-07-31T06:20:37;92971.97;;;31.81
69420;BMP280;71621;52.030;113.516;2023-07-31T06:23:43;92971.50;;;31.87
69420;BMP280;71621;52.030;113.516;2023-07-31T06:26:47;92973.72;;;31.75
69420;BMP280;71621;52.030;113.516;2023-07-31T06:29:51;92971.47;;;31.78
69420;BMP280;71621;52.030;113.516;2023-07-31T06:32:54;92973.59;;;31.77
69420;BMP280;71621;52.030;113.516;2023-07-31T06:35:58;92966.50;;;31.89
69420;BMP280;71621;52.030;113.516;2023-07-31T06:39:02;92957.53;;;31.89
69420;BMP280;71621;52.030;113.516;2023-07-31T06:42:05;92932.47;;;31.82
69420;BMP280;71621;52.030;113.516;2023-07-31T06:45:10;92935.56;;;31.87
69420;BMP280;71621;52.030;113.516;2023-07-31T06:48:13;92937.38;;;31.90
69420;BMP280;71621;52.030;113.516;2023-07-31T06:51:17;92940.16;;;31.99
69420;BMP280;71621;52.030;113.516;2023-07-31T06:54:20;92929.44;;;32.03
69420;BMP280;71621;52.030;113.516;2023-07-31T06:57:24;92920.16;;;32.07
69420;BMP280;71621;52.030;113.516;2023-07-31T07:00:27;92923.16;;;32.22
69420;BMP280;71621;52.030;113.516;2023-07-31T07:03:32;92914.47;;;32.17
69420;BMP280;71621;52.030;113.516;2023-07-31T07:06:35;92922.13;;;32.17
69420;BMP280;71621;52.030;113.516;2023-07-31T07:09:40;92931.44;;;32.22
69420;BMP280;71621;52.030;113.516;2023-07-31T07:12:43;92913.38;;;32.23
69420;BMP280;71621;52.030;113.516;2023-07-31T07:15:51;92918.91;;;32.32
69420;BMP280;71621;52.030;113.516;2023-07-31T07:18:54;92914.88;;;32.39
69420;BMP280;71621;52.030;113.516;2023-07-31T07:22:06;92919.56;;;32.49
69420;BMP280;71621;52.030;113.516;2023-07-31T07:25:09;92911.75;;;32.52
69420;BMP280;71621;52.030;113.516;2023-07-31T07:28:14;92914.03;;;32.49
69420;BMP280;71621;52.030;113.516;2023-07-31T07:31:17;92914.53;;;32.43
69420;BMP280;71621;52.030;113.516;2023-07-31T07:34:24;92907.38;;;32.38
69420;BMP280;71621;52.030;113.516;2023-07-31T07:37:27;92916.97;;;32.30
69420;BMP280;71621;52.030;113.516;2023-07-31T07:40:31;92920.69;;;32.26
69420;BMP280;71621;52.030;113.516;2023-07-31T07:43:34;92926.38;;;32.33
69420;BMP280;71621;52.030;113.516;2023-07-31T07:46:38;92934.53;;;32.35
69420;BMP280;71621;52.030;113.516;2023-07-31T07:49:42;92932.59;;;32.34
69420;BMP280;71621;52.030;113.516;2023-07-31T07:52:53;92921.50;;;32.34
69420;BMP280;71621;52.030;113.516;2023-07-31T07:55:57;92928.66;;;32.31
69420;BMP280;71621;52.030;113.516;2023-07-31T07:59:00;92926.38;;;32.33
69420;BMP280;71621;52.030;113.516;2023-07-31T08:02:04;92924.44;;;32.32
69420;BMP280;71621;52.030;113.516;2023-07-31T08:05:08;92926.25;;;32.35
69420;BMP280;71621;52.030;113.516;2023-07-31T08:08:15;92928.38;;;32.43
69420;BMP280;71621;52.030;113.516;2023-07-31T08:11:19;92931.47;;;32.48
69420;BMP280;71621;52.030;113.516;2023-07-31T08:14:22;92921.84;;;32.47
69420;BMP280;71621;52.030;113.516;2023-07-31T08:17:26;92933.09;;;32.45
69420;BMP280;71621;52.030;113.516;2023-07-31T08:20:29;92926.91;;;32.44
69420;BMP280;71621;52.030;113.516;2023-07-31T08:23:33;92944.13;;;32.36
69420;BMP280;71621;52.030;113.516;2023-07-31T08:26:37;92939.91;;;32.37
69420;BMP280;71621;52.030;113.516;2023-07-31T08:29:41;92945.59;;;32.35
69420;BMP280;71621;52.030;113.516;2023-07-31T08:32:44;92942.00;;;32.28
69420;BMP280;71621;52.030;113.516;2023-07-31T08:35:48;92937.13;;;32.20
69420;BMP280;71621;52.030;113.516;2023-07-31T08:38:51;92946.06;;;32.20
69420;BMP280;71621;52.030;113.516;2023-07-31T08:41:59;92933.56;;;32.21
69420;BMP280;71621;52.030;113.516;2023-07-31T08:45:06;92921.31;;;32.10
69420;BMP280;71621;52.030;113.516;2023-07-31T08:48:11;92931.88;;;32.07
69420;BMP280;71621;52.030;113.516;2023-07-31T08:51:15;92928.97;;;32.09
69420;BMP280;71621;52.030;113.516;2023-07-31T08:54:20;92923.28;;;32.20
69420;BMP280;71621;52.030;113.516;2023-07-31T08:57:24;92930.31;;;32.19
69420;BMP280;71621;52.030;113.516;2023-07-31T09:00:28;92922.00;;;32.19
69420;BMP280;71621;52.030;113.516;2023-07-31T09:03:34;92928.97;;;32.18
69420;BMP280;71621;52.030;113.516;2023-07-31T09:06:41;92925.91;;;32.22
69420;BMP280;71621;52.030;113.516;2023-07-31T09:09:46;92928.16;;;32.19
69420;BMP280;71621;52.030;113.516;2023-07-31T09:12:51;92926.88;;;32.27
69420;BMP280;71621;52.030;113.516;2023-07-31T09:15:55;92931.94;;;32.33
69420;BMP280;71621;52.030;113.516;2023-07-31T09:18:58;92924.28;;;32.34
69420;BMP280;71621;52.030;113.516;2023-07-31T09:22:05;92929.50;;;32.38
69420;BMP280;71621;52.030;113.516;2023-07-31T09:25:20;92927.69;;;32.34
69420;BMP280;71621;52.030;113.516;2023-07-31T09:28:31;92928.34;;;32.26
69420;BMP280;71621;52.030;113.516;2023-07-31T09:31:42;92936.47;;;32.19
69420;BMP280;71621;52.030;113.516;2023-07-31T09:34:46;92938.22;;;32.14
69420;BMP280;71621;52.030;113.516;2023-07-31T09:37:51;92935.97;;;32.08
69420;BMP280;71621;52.030;113.516;2023-07-31T09:40:55;92944.59;;;32.13
69420;BMP280;71621;52.030;113.516;2023-07-31T09:44:01;92937.13;;;32.11
69420;BMP280;71621;52.030;113.516;2023-07-31T09:47:05;92938.06;;;32.08
69420;BMP280;71621;52.030;113.516;2023-07-31T09:50:09;92948.16;;;32.03
69420;BMP280;71621;52.030;113.516;2023-07-31T09:53:13;92943.91;;;31.95
69420;BMP280;71621;52.030;113.516;2023-07-31T09:56:17;92949.72;;;31.91
69420;BMP280;71621;52.030;113.516;2023-07-31T09:59:21;92955.59;;;31.96
69420;BMP280;71621;52.030;113.516;2023-07-31T10:02:27;92954.59;;;31.91
69420;BMP280;71621;52.030;113.516;2023-07-31T10:05:35;92966.78;;;31.85
69420;BMP280;71621;52.030;113.516;2023-07-31T10:08:39;92968.19;;;31.75
69420;BMP280;71621;52.030;113.516;2023-07-31T10:11:47;92967.50;;;31.66
69420;BMP280;71621;52.030;113.516;2023-07-31T10:14:57;92969.72;;;31.55
69420;BMP280;71621;52.030;113.516;2023-07-31T10:18:02;92968.03;;;31.41
69420;BMP280;71621;52.030;113.516;2023-07-31T10:21:09;92965.06;;;31.35
69420;BMP280;71621;52.030;113.516;2023-07-31T10:24:13;92969.09;;;31.27
69420;BMP280;71621;52.030;113.516;2023-07-31T10:27:18;92964.19;;;31.19
69420;BMP280;71621;52.030;113.516;2023-07-31T10:30:28;92954.09;;;31.15
69420;BMP280;71621;52.030;113.516;2023-07-31T10:33:32;92959.38;;;31.09
69420;BMP280;71621;52.030;113.516;2023-07-31T10:36:36;92968.47;;;31.07
69420;BMP280;71621;52.030;113.516;2023-07-31T10:39:41;92977.97;;;31.00
69420;BMP280;71621;52.030;113.516;2023-07-31T10:42:50;92975.69;;;30.94
69420;BMP280;71621;52.030;113.516;2023-07-31T10:45:53;92981.41;;;30.81
69420;BMP280;71621;52.030;113.516;2023-07-31T10:49:00;92978.56;;;30.72
69420;BMP280;71621;52.030;113.516;2023-07-31T10:52:04;92978.97;;;30.58
69420;BMP280;71621;52.030;113.516;2023-07-31T10:55:27;92977.13;;;30.54
69420;BMP280;71621;52.030;113.516;2023-07-31T10:58:31;92966.44;;;30.40
69420;BMP280;71621;52.030;113.516;2023-07-31T11:01:56;92976.31;;;30.37
69420;BMP280;71621;52.030;113.516;2023-07-31T11:05:06;92970.75;;;30.17
69420;BMP280;71621;52.030;113.516;2023-07-31T11:08:32;92972.84;;;30.17
69420;BMP280;71621;52.030;113.516;2023-07-31T11:11:35;92967.16;;;30.00
69420;BMP280;71621;52.030;113.516;2023-07-31T11:14:39;92970.28;;;30.04
69420;BMP280;71621;52.030;113.516;2023-07-31T11:17:43;92975.41;;;30.00
69420;BMP280;71621;52.030;113.516;2023-07-31T11:20:47;92965.31;;;29.96
69420;BMP280;71621;52.030;113.516;2023-07-31T11:23:52;92966.63;;;29.97
69420;BMP280;71621;52.030;113.516;2023-07-31T11:26:56;92966.16;;;29.84
69420;BMP280;71621;52.030;113.516;2023-07-31T11:30:01;92966.34;;;29.71
69420;BMP280;71621;52.030;113.516;2023-07-31T11:33:06;92963.81;;;29.67
69420;BMP280;71621;52.030;113.516;2023-07-31T11:36:17;92974.06;;;29.69
69420;BMP280;71621;52.030;113.516;2023-07-31T11:39:21;92973.81;;;29.62
69420;BMP280;71621;52.030;113.516;2023-07-31T11:42:25;92971.88;;;29.61
69420;BMP280;71621;52.030;113.516;2023-07-31T11:45:29;92977.13;;;29.54
69420;BMP280;71621;52.030;113.516;2023-07-31T11:48:36;92985.50;;;29.52
69420;BMP280;71621;52.030;113.516;2023-07-31T11:51:40;92978.72;;;29.41
69420;BMP280;71621;52.030;113.516;2023-07-31T11:54:43;92987.34;;;29.34
69420;BMP280;71621;52.030;113.516;2023-07-31T11:57:47;92992.63;;;29.28
69420;BMP280;71621;52.030;113.516;2023-07-31T12:00:51;92997.06;;;29.23
69420;BMP280;71621;52.030;113.516;2023-07-31T12:03:56;93006.13;;;29.21
69420;BMP280;71621;52.030;113.516;2023-07-31T12:07:00;93019.63;;;29.15
69420;BMP280;71621;52.030;113.516;2023-07-31T12:10:04;93009.38;;;29.03
69420;BMP280;71621;52.030;113.516;2023-07-31T12:13:09;93016.72;;;28.96
69420;BMP280;71621;52.030;113.516;2023-07-31T12:16:16;93018.41;;;28.90
69420;BMP280;71621;52.030;113.516;2023-07-31T12:19:19;93032.00;;;28.82
69420;BMP280;71621;52.030;113.516;2023-07-31T12:22:23;93034.38;;;28.77
69420;BMP280;71621;52.030;113.516;2023-07-31T12:25:31;93019.53;;;28.72
69420;BMP280;71621;52.030;113.516;2023-07-31T12:31:44;93009.28;;;28.50
69420;BMP280;71621;52.030;113.516;2023-07-31T12:34:48;93015.94;;;28.42
69420;BMP280;71621;52.030;113.516;2023-07-31T12:37:51;93016.84;;;28.38
69420;BMP280;71621;52.030;113.516;2023-07-31T12:40:55;93025.88;;;28.37
69420;BMP280;71621;52.030;113.516;2023-07-31T12:43:59;93026.34;;;28.29
69420;BMP280;71621;52.030;113.516;2023-07-31T12:47:03;93037.72;;;28.23
69420;BMP280;71621;52.030;113.516;2023-07-31T12:50:07;93038.03;;;28.06
69420;BMP280;71621;52.030;113.516;2023-07-31T12:53:11;93045.38;;;28.10
69420;BMP280;71621;52.030;113.516;2023-07-31T12:56:14;93026.47;;;28.04
69420;BMP280;71621;52.030;113.516;2023-07-31T12:59:18;93033.78;;;27.96
69420;BMP280;71621;52.030;113.516;2023-07-31T13:02:21;93014.91;;;27.90
69420;BMP280;71621;52.030;113.516;2023-07-31T13:05:28;93010.84;;;27.89
69420;BMP280;71621;52.030;113.516;2023-07-31T13:08:31;93011.22;;;27.83
69420;BMP280;71621;52.030;113.516;2023-07-31T13:11:35;93024.41;;;27.81
69420;BMP280;71621;52.030;113.516;2023-07-31T13:14:39;93027.94;;;27.79
69420;BMP280;71621;52.030;113.516;2023-07-31T13:17:43;93015.75;;;27.76
69420;BMP280;71621;52.030;113.516;2023-07-31T13:20:46;93025.97;;;27.78
69420;BMP280;71621;52.030;113.516;2023-07-31T13:23:50;93021.00;;;27.80
69420;BMP280;71621;52.030;113.516;2023-07-31T13:26:55;93020.22;;;27.82
69420;BMP280;71621;52.030;113.516;2023-07-31T13:29:58;93027.25;;;27.79
69420;BMP280;71621;52.030;113.516;2023-07-31T13:33:02;93027.53;;;27.75
69420;BMP280;71621;52.030;113.516;2023-07-31T13:36:06;93022.78;;;27.73
69420;BMP280;71621;52.030;113.516;2023-07-31T13:39:09;93019.50;;;27.71
69420;BMP280;71621;52.030;113.516;2023-07-31T13:42:13;93032.81;;;27.66
69420;BMP280;71621;52.030;113.516;2023-07-31T13:45:16;93023.84;;;27.55
69420;BMP280;71621;52.030;113.516;2023-07-31T13:48:20;93005.69;;;27.37
69420;BMP280;71621;52.030;113.516;2023-07-31T13:51:23;93002.38;;;27.34
69420;BMP280;71621;52.030;113.516;2023-07-31T13:54:27;93010.31;;;27.28
69420;BMP280;71621;52.030;113.516;2023-07-31T13:57:32;93019.63;;;27.20
69420;BMP280;71621;52.030;113.516;2023-07-31T14:00:37;93028.53;;;27.21
69420;BMP280;71621;52.030;113.516;2023-07-31T14:03:40;93035.78;;;27.14
69420;BMP280;71621;52.030;113.516;2023-07-31T14:06:48;93039.09;;;27.03
69420;BMP280;71621;52.030;113.516;2023-07-31T14:09:53;93031.63;;;26.89
69420;BMP280;71621;52.030;113.516;2023-07-31T14:12:58;93033.94;;;26.72
69420;BMP280;71621;52.030;113.516;2023-07-31T14:16:01;93049.69;;;26.59
69420;BMP280;71621;52.030;113.516;2023-07-31T14:19:05;93044.34;;;26.57
69420;BMP280;71621;52.030;113.516;2023-07-31T14:22:11;93052.66;;;26.55
69420;BMP280;71621;52.030;113.516;2023-07-31T14:25:15;93050.22;;;26.49
69420;BMP280;71621;52.030;113.516;2023-07-31T14:28:18;93054.09;;;26.41
69420;BMP280;71621;52.030;113.516;2023-07-31T14:31:22;93055.03;;;26.36
69420;BMP280;71621;52.030;113.516;2023-07-31T14:34:26;93056.56;;;26.33
69420;BMP280;71621;52.030;113.516;2023-07-31T14:37:43;93049.56;;;26.36
69420;BMP280;71621;52.030;113.516;2023-07-31T14:40:47;93059.63;;;26.27
69420;BMP280;71621;52.030;113.516;2023-07-31T14:43:50;93056.72;;;26.16
69420;BMP280;71621;52.030;113.516;2023-07-31T14:46:54;93057.91;;;26.06
69420;BMP280;71621;52.030;113.516;2023-07-31T14:49:58;93059.31;;;26.05
69420;BMP280;71621;52.030;113.516;2023-07-31T14:53:02;93059.31;;;26.05
69420;BMP280;71621;52.030;113.516;2023-07-31T14:56:05;93065.13;;;25.99
69420;BMP280;71621;52.030;113.516;2023-07-31T14:59:09;93069.38;;;25.96
69420;BMP280;71621;52.030;113.516;2023-07-31T15:02:14;93065.31;;;25.95
69420;BMP280;71621;52.030;113.516;2023-07-31T15:05:17;93064.09;;;25.92
69420;BMP280;71621;52.030;113.516;2023-07-31T15:08:21;93058.06;;;25.90
69420;BMP280;71621;52.030;113.516;2023-07-31T15:11:25;93071.94;;;25.86
69420;BMP280;71621;52.030;113.516;2023-07-31T15:14:28;93063.19;;;25.83
69420;BMP280;71621;52.030;113.516;2023-07-31T15:17:34;93060.75;;;25.77
69420;BMP280;71621;52.030;113.516;2023-07-31T15:20:37;93066.41;;;25.73
69420;BMP280;71621;52.030;113.516;2023-07-31T15:23:41;93059.72;;;25.70
69420;BMP280;71621;52.030;113.516;2023-07-31T15:26:44;93055.78;;;25.67
69420;BMP280;71621;52.030;113.516;2023-07-31T15:29:49;93058.63;;;25.65
69420;BMP280;71621;52.030;113.516;2023-07-31T15:32:56;93053.34;;;25.61
69420;BMP280;71621;52.030;113.516;2023-07-31T15:36:00;93056.94;;;25.57
69420;BMP280;71621;52.030;113.516;2023-07-31T15:39:03;93057.78;;;25.54
69420;BMP280;71621;52.030;113.516;2023-07-31T15:42:07;93058.56;;;25.38
69420;BMP280;71621;52.030;113.516;2023-07-31T15:45:11;93063.47;;;25.20
69420;BMP280;71621;52.030;113.516;2023-07-31T15:48:15;93056.22;;;25.00
69420;BMP280;71621;52.030;113.516;2023-07-31T15:51:19;93059.69;;;24.84
69420;BMP280;71621;52.030;113.516;2023-07-31T15:54:23;93056.56;;;24.77
69420;BMP280;71621;52.030;113.516;2023-07-31T15:57:26;93054.84;;;24.70
69420;BMP280;71621;52.030;113.516;2023-07-31T16:00:33;93062.19;;;24.59
69420;BMP280;71621;52.030;113.516;2023-07-31T16:03:36;93053.22;;;24.45
69420;BMP280;71621;52.030;113.516;2023-07-31T16:06:40;93043.94;;;24.38
69420;BMP280;71621;52.030;113.516;2023-07-31T16:09:44;93041.06;;;24.42
69420;BMP280;71621;52.030;113.516;2023-07-31T16:12:48;93032.94;;;24.40
69420;BMP280;71621;52.030;113.516;2023-07-31T16:15:51;93038.25;;;24.44
69420;BMP280;71621;52.030;113.516;2023-07-31T16:18:55;93031.63;;;24.39
69420;BMP280;71621;52.030;113.516;2023-07-31T16:21:59;93032.66;;;24.32
69420;BMP280;71621;52.030;113.516;2023-07-31T16:25:03;93026.97;;;24.21
69420;BMP280;71621;52.030;113.516;2023-07-31T16:28:07;93030.22;;;24.09
69420;BMP280;71621;52.030;113.516;2023-07-31T16:31:10;93018.25;;;24.02
69420;BMP280;71621;52.030;113.516;2023-07-31T16:34:14;93013.97;;;23.90
69420;BMP280;71621;52.030;113.516;2023-07-31T16:37:18;93018.41;;;23.81
69420;BMP280;71621;52.030;113.516;2023-07-31T16:40:21;93021.16;;;23.81
69420;BMP280;71621;52.030;113.516;2023-07-31T16:43:25;93019.50;;;23.72
69420;BMP280;71621;52.030;113.516;2023-07-31T16:46:31;93019.75;;;23.66
69420;BMP280;71621;52.030;113.516;2023-07-31T16:49:35;93018.91;;;23.52
69420;BMP280;71621;52.030;113.516;2023-07-31T16:52:38;93013.88;;;23.42
69420;BMP280;71621;52.030;113.516;2023-07-31T16:55:42;93022.31;;;23.36
69420;BMP280;71621;52.030;113.516;2023-07-31T16:58:45;93019.75;;;23.32
69420;BMP280;71621;52.030;113.516;2023-07-31T17:01:49;93026.44;;;23.35
69420;BMP280;71621;52.030;113.516;2023-07-31T17:04:52;93021.13;;;23.31
69420;BMP280;71621;52.030;113.516;2023-07-31T17:07:56;93024.34;;;23.19
69420;BMP280;71621;52.030;113.516;2023-07-31T17:10:59;93021.03;;;23.16
69420;BMP280;71621;52.030;113.516;2023-07-31T17:14:03;93007.97;;;23.19
69420;BMP280;71621;52.030;113.516;2023-07-31T17:17:09;93014.66;;;23.22
69420;BMP280;71621;52.030;113.516;2023-07-31T17:20:13;93021.88;;;23.30
69420;BMP280;71621;52.030;113.516;2023-07-31T17:23:19;93026.16;;;23.25